Time;durP1;ratioP1;P1;durP2;ratioP2;P2;SDS_P1;SDS_P2;PMS_P1;PMS_P2;Temp;Humidity;BMP_temperature;BMP_pressure;BME280_temperature;BME280_humidity;BME280_pressure;Samples;Min_cycle;Max_cycle;Signal;HPM_P1;HPM_P2
2021/03/15 00:00:47;;;;;;;21.03;7.07;;;;;;;2.75;84.99;100131.30;123536;1105;65282;-77
2021/03/15 00:03:14;;;;;;;32.60;9.83;;;;;;;2.79;84.62;100138.73;123633;1102;64914;-79
2021/03/15 00:05:55;;;;;;;40.00;9.80;;;;;;;2.82;84.26;100135.82;123329;1102;65001;-76
2021/03/15 00:08:21;;;;;;;29.47;9.83;;;;;;;2.86;84.04;100133.77;123397;1105;65262;-76
2021/03/15 00:10:48;;;;;;;26.97;7.23;;;;;;;2.90;84.07;100134.31;123427;1105;65745;-77
2021/03/15 00:13:15;;;;;;;33.07;11.80;;;;;;;2.94;84.67;100127.84;123453;1102;64911;-78
2021/03/15 00:15:43;;;;;;;20.80;8.17;;;;;;;2.97;84.77;100135.41;123416;1105;64924;-76
2021/03/15 00:18:10;;;;;;;17.03;7.37;;;;;;;2.99;83.69;100131.67;123463;1102;64924;-77
2021/03/15 00:20:37;;;;;;;31.60;9.77;;;;;;;3.00;84.03;100127.28;123423;1104;65932;-76
2021/03/15 00:23:04;;;;;;;25.33;10.60;;;;;;;3.01;84.59;100121.88;123496;1105;64968;-75
2021/03/15 00:25:30;;;;;;;21.87;6.07;;;;;;;3.03;84.59;100126.98;123427;1105;64991;-77
2021/03/15 00:27:57;;;;;;;28.20;8.93;;;;;;;3.03;83.87;100119.95;123408;1102;64915;-77
2021/03/15 00:30:23;;;;;;;35.33;10.07;;;;;;;3.06;84.27;100111.00;123406;1106;64982;-75
2021/03/15 00:32:50;;;;;;;32.40;9.67;;;;;;;3.07;84.28;100115.27;123417;1105;64953;-77
2021/03/15 00:35:18;;;;;;;37.37;9.63;;;;;;;3.08;83.70;100105.59;123421;1106;64889;-76
2021/03/15 00:37:45;;;;;;;22.43;7.67;;;;;;;3.09;84.91;100121.19;123416;1105;64973;-75
2021/03/15 00:40:15;;;;;;;36.00;12.67;;;;;;;3.12;84.44;100113.03;123622;1101;64889;-76
2021/03/15 00:42:43;;;;;;;29.53;8.63;;;;;;;3.14;84.65;100105.86;123618;1102;65881;-77
2021/03/15 00:45:10;;;;;;;36.30;10.67;;;;;;;3.17;85.04;100112.64;123485;1102;64895;-77
2021/03/15 00:47:37;;;;;;;30.30;10.87;;;;;;;3.19;84.75;100116.77;123453;1102;66116;-75
2021/03/15 00:50:32;;;;;;;33.23;11.83;;;;;;;3.21;84.04;100112.20;123389;1105;64873;-76
2021/03/15 00:52:58;;;;;;;;;;;;;;;3.24;83.97;100111.91;123445;1106;64889;-76
2021/03/15 00:55:25;;;;;;;36.08;12.25;;;;;;;3.25;84.62;100124.06;123423;1105;64939;-77
2021/03/15 00:57:52;;;;;;;36.60;13.10;;;;;;;3.28;85.29;100112.46;123506;1105;64895;-75
2021/03/15 01:00:23;;;;;;;46.33;13.60;;;;;;;3.33;85.22;100127.76;123434;1102;64934;-75
2021/03/15 01:02:50;;;;;;;46.93;15.83;;;;;;;3.37;84.78;100122.08;123667;1102;64835;-77
2021/03/15 01:05:20;;;;;;;44.00;14.20;;;;;;;3.38;85.29;100110.64;123410;1102;65000;-77
2021/03/15 01:07:47;;;;;;;38.60;16.27;;;;;;;3.42;85.06;100114.64;123431;1104;65044;-75
2021/03/15 01:10:14;;;;;;;38.10;14.27;;;;;;;3.45;85.12;100108.27;123567;1102;66107;-75
2021/03/15 01:12:41;;;;;;;38.83;13.70;;;;;;;3.49;85.24;100099.16;123526;1102;65683;-75
2021/03/15 01:15:10;;;;;;;37.93;14.13;;;;;;;3.49;85.19;100107.02;123420;1106;64892;-76
2021/03/15 01:17:37;;;;;;;37.47;12.93;;;;;;;3.52;84.58;100101.47;123533;1106;65027;-75
2021/03/15 01:20:05;;;;;;;27.77;9.53;;;;;;;3.54;85.23;100098.72;123541;1102;65043;-76
2021/03/15 01:22:33;;;;;;;38.77;16.03;;;;;;;3.55;84.76;100105.59;123430;1105;65357;-76
2021/03/15 01:24:59;;;;;;;35.13;13.63;;;;;;;3.56;84.49;100102.84;123441;1105;65368;-76
2021/03/15 01:27:25;;;;;;;39.67;10.77;;;;;;;3.55;84.41;100100.35;123470;1105;64963;-76
2021/03/15 01:29:52;;;;;;;32.77;10.80;;;;;;;3.55;84.73;100093.33;123421;1102;64828;-75
2021/03/15 01:32:20;;;;;;;40.47;14.03;;;;;;;3.54;85.63;100091.67;123731;1102;64921;-77
2021/03/15 01:34:46;;;;;;;25.13;11.93;;;;;;;3.54;84.85;100091.67;123570;1103;64897;-76
2021/03/15 01:37:13;;;;;;;22.33;6.60;;;;;;;3.50;85.47;100090.30;123455;1105;65385;-76
2021/03/15 01:39:39;;;;;;;24.57;9.53;;;;;;;3.48;85.81;100092.23;123416;1102;66075;-77
2021/03/15 01:42:07;;;;;;;27.23;10.17;;;;;;;3.44;85.14;100088.25;123430;1105;64928;-76
2021/03/15 01:44:33;;;;;;;20.67;9.17;;;;;;;3.40;86.01;100084.26;123475;1102;65068;-77
2021/03/15 01:47:00;;;;;;;30.50;9.57;;;;;;;3.39;86.12;100072.95;123414;1102;64940;-75
2021/03/15 01:49:26;;;;;;;28.80;8.57;;;;;;;3.37;85.73;100079.31;123417;1102;64917;-76
2021/03/15 01:51:54;;;;;;;18.73;7.37;;;;;;;3.35;86.00;100073.39;123426;1105;64933;-75
2021/03/15 01:54:20;;;;;;;19.47;8.10;;;;;;;3.33;85.36;100067.47;123438;1105;64997;-76
2021/03/15 01:56:47;;;;;;;28.10;9.60;;;;;;;3.30;85.50;100073.83;123419;1102;64905;-78
2021/03/15 01:59:17;;;;;;;21.43;8.23;;;;;;;3.31;86.16;100069.41;123435;1105;64946;-75
2021/03/15 02:01:47;;;;;;;32.70;10.93;;;;;;;3.28;86.04;100065.28;123400;1102;64918;-76
2021/03/15 02:04:15;;;;;;;34.37;10.33;;;;;;;3.28;85.74;100064.46;123415;1105;64905;-77
2021/03/15 02:06:43;;;;;;;33.13;11.77;;;;;;;3.28;86.72;100056.59;123426;1103;65445;-77
2021/03/15 02:09:09;;;;;;;41.80;11.67;;;;;;;3.26;86.03;100056.73;123412;1105;65087;-76
2021/03/15 02:11:58;;;;;;;50.33;16.23;;;;;;;3.23;86.93;100055.23;123370;1105;65139;-78
2021/03/15 02:15:09;;;;;;;64.33;17.90;;;;;;;3.23;86.90;100057.00;123430;1105;65307;-79
2021/03/15 02:17:47;;;;;;;59.30;17.30;;;;;;;3.20;87.46;100058.12;123283;1105;65586;-77
2021/03/15 02:20:34;;;;;;;74.60;18.70;;;;;;;3.19;87.43;100050.42;123374;1103;65717;-77
2021/03/15 02:23:04;;;;;;;75.83;20.07;;;;;;;3.16;86.92;100045.45;123421;1104;65687;-77
2021/03/15 02:25:55;;;;;;;69.00;17.57;;;;;;;3.13;86.91;100046.56;123406;1105;64911;-77
2021/03/15 02:28:36;;;;;;;60.67;13.23;;;;;;;3.10;86.96;100043.39;123400;1105;64942;-75
2021/03/15 02:31:33;;;;;;;58.23;15.03;;;;;;;3.08;86.33;100048.77;123410;1105;64940;-77
2021/03/15 02:34:15;;;;;;;30.10;8.57;;;;;;;3.04;86.62;100042.19;123519;1102;64904;-77
2021/03/15 02:36:45;;;;;;;45.67;11.87;;;;;;;3.00;86.55;100036.39;123400;1102;65685;-76
2021/03/15 02:39:17;;;;;;;23.43;6.83;;;;;;;2.98;86.93;100037.52;123481;1105;65679;-76
2021/03/15 02:41:45;;;;;;;58.53;16.17;;;;;;;2.94;86.89;100041.38;123537;1102;65710;-77
2021/03/15 02:44:13;;;;;;;53.45;13.80;;;;;;;2.92;86.68;100027.59;123482;1102;64933;-76
2021/03/15 02:46:44;;;;;;;35.77;9.50;;;;;;;2.84;88.17;100029.11;123500;1105;66108;-74
2021/03/15 02:49:14;;;;;;;30.05;8.30;;;;;;;2.77;88.34;100025.42;123400;1102;65069;-75
2021/03/15 02:51:42;;;;;;;16.37;7.43;;;;;;;2.71;88.79;100035.63;123548;1102;64946;-76
2021/03/15 02:54:10;;;;;;;26.70;7.53;;;;;;;2.63;88.16;100031.91;123408;1105;64931;-75
2021/03/15 02:56:44;;;;;;;34.53;10.37;;;;;;;2.56;88.31;100027.38;126994;1102;62615;-76
2021/03/15 02:59:13;;;;;;;61.97;14.57;;;;;;;2.53;87.83;100032.88;127038;1105;64062;-76
2021/03/15 03:01:40;;;;;;;50.45;13.40;;;;;;;2.46;88.68;100016.91;124442;1106;65017;-76
2021/03/15 03:04:09;;;;;;;56.20;16.10;;;;;;;2.42;88.14;100026.00;123418;1104;64972;-76
2021/03/15 03:06:38;;;;;;;50.23;15.50;;;;;;;2.38;88.73;100028.09;123400;1106;64965;-74
2021/03/15 03:09:07;;;;;;;57.50;15.63;;;;;;;2.34;88.14;100023.25;123496;1104;66032;-74
2021/03/15 03:11:35;;;;;;;32.03;10.97;;;;;;;2.32;88.52;100026.02;123462;1105;65711;-75
2021/03/15 03:14:02;;;;;;;51.33;15.47;;;;;;;2.28;89.14;100035.11;123383;1102;65699;-75
2021/03/15 03:16:42;;;;;;;83.33;21.10;;;;;;;2.23;89.31;100022.44;123432;1103;64946;-75
2021/03/15 03:19:17;;;;;;;77.47;16.43;;;;;;;2.21;89.01;100026.14;123434;1105;65218;-76
2021/03/15 03:21:44;;;;;;;;;;;;;;;2.17;89.32;100022.17;123439;1105;64900;-76
2021/03/15 03:24:11;;;;;;;35.30;8.53;;;;;;;2.14;89.79;100019.81;123408;1102;64934;-75
2021/03/15 03:26:39;;;;;;;53.85;15.55;;;;;;;2.14;90.20;100014.58;123360;1102;64944;-75
2021/03/15 03:29:09;;;;;;;47.53;13.00;;;;;;;2.10;89.83;100021.87;123558;1104;64912;-75
2021/03/15 03:31:41;;;;;;;45.70;14.50;;;;;;;2.07;89.88;100010.87;123439;1106;65147;-76
2021/03/15 03:34:08;;;;;;;37.53;11.47;;;;;;;2.04;90.28;100015.41;123699;1105;65649;-78
2021/03/15 03:36:35;;;;;;;57.07;16.17;;;;;;;2.04;90.07;100011.98;123419;1105;64909;-77
2021/03/15 03:39:09;;;;;;;43.17;13.50;;;;;;;2.02;90.21;100011.28;123553;1102;65038;-75
2021/03/15 03:41:36;;;;;;;60.77;17.53;;;;;;;2.03;90.65;100021.59;123400;1105;65252;-76
2021/03/15 03:44:06;;;;;;;55.83;16.63;;;;;;;2.02;90.81;100012.10;123460;1105;64911;-76
2021/03/15 03:46:32;;;;;;;72.77;19.13;;;;;;;2.00;90.45;100010.59;123550;1105;64832;-75
2021/03/15 03:48:59;;;;;;;63.90;16.17;;;;;;;1.98;90.53;100013.34;123418;1102;64909;-76
2021/03/15 03:51:32;;;;;;;100.33;21.03;;;;;;;1.97;90.02;100016.90;123496;1102;64885;-76
2021/03/15 03:54:06;;;;;;;61.57;18.80;;;;;;;1.97;90.74;100011.67;123498;1103;64908;-78
2021/03/15 03:56:50;;;;;;;54.93;13.25;;;;;;;1.96;90.48;100007.41;123493;1105;64934;-78
2021/03/15 03:59:20;;;;;;;57.27;15.87;;;;;;;1.95;90.54;100012.77;123407;1105;64937;-76
2021/03/15 04:01:50;;;;;;;61.13;20.43;;;;;;;1.93;90.66;100005.05;123437;1102;64905;-77
2021/03/15 04:04:21;;;;;;;61.43;19.20;;;;;;;1.92;90.43;100008.65;123402;1105;65067;-77
2021/03/15 04:06:51;;;;;;;62.20;15.70;;;;;;;1.91;90.77;100004.36;123474;1104;64889;-76
2021/03/15 04:09:27;;;;;;;55.37;15.43;;;;;;;1.91;90.14;100004.36;123518;1105;64910;-76
2021/03/15 04:11:57;;;;;;;41.63;15.00;;;;;;;1.91;90.49;100006.16;123418;1105;64835;-74
2021/03/15 04:14:26;;;;;;;49.30;16.33;;;;;;;1.90;90.35;100004.52;123413;1106;64888;-75
2021/03/15 04:16:54;;;;;;;58.67;16.97;;;;;;;1.91;90.81;100014.83;123492;1105;64911;-76
2021/03/15 04:19:29;;;;;;;65.37;19.50;;;;;;;1.90;90.29;100010.57;123494;1105;64914;-75
2021/03/15 04:21:58;;;;;;;58.77;18.03;;;;;;;1.91;91.05;100014.00;123435;1105;66611;-77
2021/03/15 04:24:27;;;;;;;63.13;19.30;;;;;;;1.89;90.66;100016.78;123468;1102;64889;-76
2021/03/15 04:26:54;;;;;;;63.57;21.33;;;;;;;1.90;90.85;100020.22;123462;1105;66180;-76
2021/03/15 04:29:21;;;;;;;65.57;20.33;;;;;;;1.90;90.51;100010.57;123364;1105;65026;-76
2021/03/15 04:31:49;;;;;;;51.33;18.83;;;;;;;1.90;90.97;100015.80;123401;1102;64991;-76
2021/03/15 04:34:17;;;;;;;56.20;18.03;;;;;;;1.91;91.08;100009.59;123509;1105;64864;-77
2021/03/15 04:36:44;;;;;;;62.60;17.83;;;;;;;1.93;90.84;100014.70;123438;1105;64883;-75
2021/03/15 04:39:20;;;;;;;56.53;17.43;;;;;;;1.94;90.42;100016.37;123448;1105;64897;-76
2021/03/15 04:41:47;;;;;;;54.57;15.27;;;;;;;1.95;90.62;100018.00;123399;1105;64953;-75
2021/03/15 04:44:14;;;;;;;44.37;14.20;;;;;;;1.96;90.58;100020.49;123461;1102;64953;-74
2021/03/15 04:46:41;;;;;;;47.90;15.80;;;;;;;1.97;90.83;100021.31;123459;1102;65687;-76
2021/03/15 04:49:09;;;;;;;57.50;16.93;;;;;;;1.96;90.93;100014.44;123622;1105;64892;-77
2021/03/15 04:51:37;;;;;;;56.50;17.17;;;;;;;1.96;91.33;100015.27;123444;1102;64998;-76
2021/03/15 04:54:04;;;;;;;53.77;16.27;;;;;;;1.95;90.85;100018.83;123419;1102;65707;-76
2021/03/15 04:56:35;;;;;;;59.27;17.77;;;;;;;1.96;90.90;100012.64;123391;1103;66177;-75
2021/03/15 04:59:03;;;;;;;62.90;18.23;;;;;;;1.96;91.05;100010.03;123449;1105;65696;-74
2021/03/15 05:01:32;;;;;;;65.87;17.93;;;;;;;1.95;91.18;100008.36;123745;1105;64885;-75
2021/03/15 05:04:00;;;;;;;62.73;18.53;;;;;;;1.95;91.38;100003.13;123769;1105;64889;-76
2021/03/15 05:06:28;;;;;;;77.47;20.60;;;;;;;1.96;91.24;100012.64;123384;1102;64975;-76
2021/03/15 05:08:56;;;;;;;62.07;17.63;;;;;;;1.97;91.51;100011.67;123436;1102;66034;-74
2021/03/15 05:11:29;;;;;;;63.47;21.73;;;;;;;1.97;90.99;100010.84;123446;1106;64971;-75
2021/03/15 05:13:59;;;;;;;70.33;19.27;;;;;;;1.98;91.19;100015.13;123429;1106;64974;-76
2021/03/15 05:16:30;;;;;;;65.53;20.20;;;;;;;1.98;90.95;100015.13;123519;1102;64867;-74
2021/03/15 05:18:57;;;;;;;60.30;17.87;;;;;;;2.00;91.06;100011.41;123423;1102;65039;-77
2021/03/15 05:21:24;;;;;;;64.93;19.10;;;;;;;1.99;90.90;100014.97;123442;1102;66074;-76
2021/03/15 05:23:55;;;;;;;48.80;15.67;;;;;;;2.00;91.19;100006.18;123441;1105;64882;-77
2021/03/15 05:26:23;;;;;;;59.53;17.93;;;;;;;2.01;91.19;100007.81;123452;1105;64895;-76
2021/03/15 05:28:51;;;;;;;63.93;19.70;;;;;;;2.03;91.42;100008.51;123487;1105;64947;-78
2021/03/15 05:31:19;;;;;;;61.53;17.73;;;;;;;2.06;91.01;100007.41;123411;1105;65679;-77
2021/03/15 05:33:46;;;;;;;51.53;16.33;;;;;;;2.09;91.35;100015.00;123786;1105;65217;-76
2021/03/15 05:36:15;;;;;;;46.83;15.40;;;;;;;2.11;90.58;100002.61;123651;1102;65712;-76
2021/03/15 05:38:43;;;;;;;60.20;20.30;;;;;;;2.15;91.04;100008.40;123552;1105;64909;-77
2021/03/15 05:41:12;;;;;;;50.77;15.40;;;;;;;2.17;90.63;100009.09;123543;1105;64998;-76
2021/03/15 05:44:16;;;;;;;50.33;14.73;;;;;;;2.18;90.85;100014.16;123401;1102;66133;-76
2021/03/15 05:47:04;;;;;;;49.60;17.10;;;;;;;2.20;90.64;100012.23;123459;1105;64886;-77
2021/03/15 05:49:56;;;;;;;63.55;16.40;;;;;;;2.21;91.46;100006.05;123399;1105;64870;-74
2021/03/15 05:53:02;;;;;;;59.30;16.40;;;;;;;2.24;90.67;100007.56;123469;1102;64918;-75
2021/03/15 05:55:34;;;;;;;56.47;16.77;;;;;;;2.28;91.29;100002.89;123420;1102;64914;-75
2021/03/15 05:58:44;;;;;;;55.03;16.57;;;;;;;2.31;91.13;100003.41;123390;1104;64857;-74
2021/03/15 06:01:19;;;;;;;56.40;16.57;;;;;;;2.33;90.55;99995.44;123402;1103;64853;-77
2021/03/15 06:04:04;;;;;;;;;;;;;;;2.34;90.89;99997.92;123473;1105;65396;-76
2021/03/15 06:06:38;;;;;;;59.40;15.20;;;;;;;2.36;90.99;100001.23;123435;1102;64972;-77
2021/03/15 06:09:13;;;;;;;58.17;17.60;;;;;;;2.37;91.38;99991.58;123433;1106;64909;-77
2021/03/15 06:11:45;;;;;;;56.03;16.37;;;;;;;2.39;90.80;99995.70;123404;1105;65644;-77
2021/03/15 06:14:13;;;;;;;47.47;13.80;;;;;;;2.41;90.61;100004.24;123454;1102;64934;-78
2021/03/15 06:16:43;;;;;;;49.70;15.17;;;;;;;2.43;91.62;99996.26;123411;1102;64876;-78
2021/03/15 06:19:11;;;;;;;56.87;14.93;;;;;;;2.47;91.07;100002.05;123485;1105;64838;-77
2021/03/15 06:21:38;;;;;;;49.20;14.43;;;;;;;2.50;91.60;99997.34;123406;1105;64915;-78
2021/03/15 06:24:05;;;;;;;44.17;11.63;;;;;;;2.52;91.87;99994.59;123423;1104;64905;-82
2021/03/15 06:26:32;;;;;;;50.67;13.70;;;;;;;2.54;91.73;99998.72;123422;1105;65000;-79
2021/03/15 06:29:03;;;;;;;46.87;13.93;;;;;;;2.60;90.61;100000.77;123462;1103;64943;-77
2021/03/15 06:31:32;;;;;;;40.57;11.57;;;;;;;2.64;91.26;99998.71;123478;1105;64978;-78
2021/03/15 06:33:59;;;;;;;45.57;12.00;;;;;;;2.70;90.95;100010.39;123502;1105;64907;-77
2021/03/15 06:36:27;;;;;;;32.37;9.93;;;;;;;2.73;90.52;100016.19;123441;1106;65033;-78
2021/03/15 06:38:55;;;;;;;21.05;5.80;;;;;;;2.73;89.92;100012.75;123530;1102;64920;-78
2021/03/15 06:41:25;;;;;;;26.27;6.67;;;;;;;2.76;89.83;100008.06;123424;1102;65725;-78
2021/03/15 06:43:51;;;;;;;19.93;5.73;;;;;;;2.80;90.21;100019.06;123512;1102;65014;-78
2021/03/15 06:46:19;;;;;;;28.27;8.63;;;;;;;2.81;89.42;100020.73;123369;1102;64866;-78
2021/03/15 06:48:46;;;;;;;18.67;7.30;;;;;;;2.83;89.50;100030.09;123556;1102;65081;-78
2021/03/15 06:51:13;;;;;;;23.70;8.00;;;;;;;2.87;89.05;100025.41;123326;1103;64882;-77
2021/03/15 06:53:41;;;;;;;32.03;7.73;;;;;;;2.91;89.46;100031.17;123425;1102;65020;-78
2021/03/15 06:56:11;;;;;;;24.07;6.83;;;;;;;2.95;88.97;100037.78;123375;1102;65000;-77
2021/03/15 06:58:48;;;;;;;22.33;7.33;;;;;;;3.00;87.92;100040.82;123447;1105;64905;-77
2021/03/15 07:01:28;;;;;;;14.13;5.03;;;;;;;3.03;87.98;100037.90;123396;1102;65097;-76
2021/03/15 07:04:07;;;;;;;26.17;6.10;;;;;;;3.06;87.05;100048.12;123380;1102;64942;-79
2021/03/15 07:06:36;;;;;;;14.13;4.20;;;;;;;3.05;85.01;100046.45;123811;1106;64911;-78
2021/03/15 07:09:08;;;;;;;15.17;3.93;;;;;;;3.09;86.21;100039.14;123396;1105;65756;-75
2021/03/15 07:11:34;;;;;;;20.00;5.50;;;;;;;3.13;86.08;100045.75;123415;1105;64924;-74
2021/03/15 07:14:01;;;;;;;19.17;4.17;;;;;;;3.13;85.66;100046.56;123197;1102;65607;-74
2021/03/15 07:16:34;;;;;;;21.50;6.00;;;;;;;3.17;86.70;100047.94;123281;1105;64886;-75
2021/03/15 07:19:21;;;;;;;22.50;8.53;;;;;;;3.19;86.29;100051.23;123323;1105;64869;-76
2021/03/15 07:21:48;;;;;;;20.00;7.90;;;;;;;3.21;85.63;100054.55;123410;1102;65663;-75
2021/03/15 07:24:14;;;;;;;26.73;6.73;;;;;;;3.24;85.93;100042.94;123422;1105;64895;-75
2021/03/15 07:26:44;;;;;;;24.53;7.00;;;;;;;3.27;86.29;100042.64;123450;1103;64882;-76
2021/03/15 07:29:16;;;;;;;18.83;6.23;;;;;;;3.30;85.54;100052.85;123527;1106;64966;-77
2021/03/15 07:31:47;;;;;;;26.50;6.40;;;;;;;3.34;84.88;100048.16;123467;1105;64937;-78
2021/03/15 07:34:23;;;;;;;30.03;7.23;;;;;;;3.40;85.63;100058.05;123448;1105;65224;-77
2021/03/15 07:36:57;;;;;;;14.93;4.40;;;;;;;3.40;84.51;100068.53;123388;1105;64911;-78
2021/03/15 07:39:29;;;;;;;18.05;5.10;;;;;;;3.43;84.26;100055.16;123410;1103;64949;-78
2021/03/15 07:42:01;;;;;;;12.90;4.67;;;;;;;3.45;85.02;100061.08;123420;1102;65221;-78
2021/03/15 07:44:29;;;;;;;17.33;4.00;;;;;;;3.52;85.41;100066.56;123443;1105;64937;-77
2021/03/15 07:46:58;;;;;;;19.00;6.30;;;;;;;3.54;85.25;100057.58;123405;1105;65346;-77
2021/03/15 07:49:38;;;;;;;21.23;5.90;;;;;;;3.65;85.47;100059.18;123495;1103;65906;-79
2021/03/15 07:52:07;;;;;;;18.57;6.17;;;;;;;3.80;84.22;100057.71;123503;1105;64987;-79
2021/03/15 07:54:35;;;;;;;23.97;7.30;;;;;;;3.89;83.47;100053.41;123426;1105;65269;-77
2021/03/15 07:57:27;;;;;;;25.73;5.77;;;;;;;3.98;83.17;100042.02;123510;1105;64879;-78
2021/03/15 07:59:54;;;;;;;20.53;6.47;;;;;;;4.04;83.62;100038.80;123548;1105;64914;-78
2021/03/15 08:02:25;;;;;;;23.07;8.13;;;;;;;4.11;83.74;100040.83;123575;1102;65641;-75
2021/03/15 08:04:53;;;;;;;21.45;7.45;;;;;;;4.23;83.77;100036.98;123550;1102;65010;-80
2021/03/15 08:07:21;;;;;;;26.73;7.70;;;;;;;4.34;83.08;100038.59;123390;1105;65861;-78
2021/03/15 08:09:49;;;;;;;26.37;8.30;;;;;;;4.44;82.22;100037.53;123332;1105;64959;-78
2021/03/15 08:12:16;;;;;;;22.13;7.90;;;;;;;4.65;83.15;100039.84;123510;1102;64917;-78
2021/03/15 08:14:49;;;;;;;22.30;8.40;;;;;;;4.75;81.84;100038.91;123339;1105;64911;-78
2021/03/15 08:17:21;;;;;;;15.37;4.43;;;;;;;4.80;80.74;100042.73;123533;1103;64972;-80
2021/03/15 08:19:48;;;;;;;20.67;7.20;;;;;;;4.85;81.02;100040.46;123562;1102;65715;-81
2021/03/15 08:22:26;;;;;;;19.00;5.75;;;;;;;4.90;79.97;100042.62;123535;1105;65204;-79
2021/03/15 08:24:56;;;;;;;21.73;6.63;;;;;;;5.02;81.04;100054.53;123466;1104;64905;-83
2021/03/15 08:27:29;;;;;;;20.10;5.90;;;;;;;5.06;80.44;100049.80;123642;1106;64924;-79
2021/03/15 08:30:01;;;;;;;17.47;6.83;;;;;;;5.11;79.83;100052.78;123348;1102;64949;-79
2021/03/15 08:32:33;;;;;;;14.27;4.13;;;;;;;5.19;78.42;100060.72;123572;1102;64962;-79
2021/03/15 08:35:01;;;;;;;16.43;5.70;;;;;;;5.17;78.67;100062.67;123650;1102;64937;-79
2021/03/15 08:37:56;;;;;;;11.40;4.83;;;;;;;5.21;78.27;100064.02;123674;1105;64962;-78
2021/03/15 08:40:41;;;;;;;15.67;5.37;;;;;;;5.24;79.30;100065.50;123459;1102;64979;-77
2021/03/15 08:43:17;;;;;;;11.83;3.90;;;;;;;5.24;78.48;100076.84;123375;1105;64908;-76
2021/03/15 08:45:47;;;;;;;8.67;2.43;;;;;;;5.25;78.50;100060.09;123339;1105;64940;-80
2021/03/15 08:48:14;;;;;;;15.53;5.13;;;;;;;5.43;78.48;100052.12;124116;1105;65676;-79
2021/03/15 08:50:45;;;;;;;11.03;3.70;;;;;;;5.43;77.43;100061.83;123462;1105;64991;-79
2021/03/15 08:53:37;;;;;;;14.53;5.30;;;;;;;5.40;78.41;100062.12;123681;1105;64949;-78
2021/03/15 08:56:11;;;;;;;6.57;2.83;;;;;;;5.32;78.42;100047.14;123415;1102;65024;-79
2021/03/15 08:58:41;;;;;;;16.90;5.93;;;;;;;5.31;79.07;100064.73;123495;1105;65004;-80
2021/03/15 09:01:09;;;;;;;15.60;5.13;;;;;;;5.31;78.34;100062.11;123432;1103;64886;-80
2021/03/15 09:03:59;;;;;;;14.23;5.03;;;;;;;5.29;78.32;100061.44;123643;1102;64930;-79
2021/03/15 09:06:37;;;;;;;17.13;6.13;;;;;;;5.28;78.77;100058.95;123561;1102;64905;-81
2021/03/15 09:09:24;;;;;;;10.00;3.73;;;;;;;5.23;78.61;100054.17;124134;1102;64985;-79
2021/03/15 09:11:55;;;;;;;13.90;3.83;;;;;;;5.23;77.95;100083.09;123545;1105;64921;-81
2021/03/15 09:14:30;;;;;;;17.27;4.30;;;;;;;5.23;78.68;100050.72;123462;1105;64892;-76
2021/03/15 09:17:01;;;;;;;16.87;6.33;;;;;;;5.31;77.80;100048.95;123515;1102;64764;-79
2021/03/15 09:19:33;;;;;;;14.70;5.70;;;;;;;5.44;77.43;100052.94;123517;1105;64866;-78
2021/03/15 09:22:02;;;;;;;20.93;6.73;;;;;;;5.57;77.77;100055.98;123503;1103;64930;-78
2021/03/15 09:24:39;;;;;;;14.90;5.90;;;;;;;5.63;76.81;100047.45;123579;1106;64908;-80
2021/03/15 09:27:07;;;;;;;18.50;5.97;;;;;;;5.71;76.91;100044.83;123520;1106;64994;-79
2021/03/15 09:29:34;;;;;;;15.43;5.43;;;;;;;5.70;76.14;100035.30;123528;1105;64952;-77
2021/03/15 09:32:11;;;;;;;19.43;6.57;;;;;;;5.76;77.10;100040.89;123371;1103;64998;-79
2021/03/15 09:34:38;;;;;;;15.50;4.95;;;;;;;5.75;76.53;100047.16;123622;1103;64988;-79
2021/03/15 09:37:05;;;;;;;16.23;4.70;;;;;;;5.69;76.89;100038.90;123735;1105;64898;-81
2021/03/15 09:39:32;;;;;;;24.90;6.20;;;;;;;5.69;77.51;100044.16;123615;1103;65003;-79
2021/03/15 09:42:00;;;;;;;18.20;5.63;;;;;;;5.70;76.54;100040.56;123500;1105;64876;-79
2021/03/15 09:44:31;;;;;;;17.60;5.50;;;;;;;5.76;77.89;100038.27;123334;1102;64946;-78
2021/03/15 09:46:59;;;;;;;13.60;4.63;;;;;;;5.66;77.38;100044.49;123396;1105;64907;-78
2021/03/15 09:49:37;;;;;;;15.77;5.77;;;;;;;5.60;78.46;100036.41;123500;1105;64924;-77
2021/03/15 09:52:12;;;;;;;20.97;5.17;;;;;;;5.48;79.28;100063.02;123528;1105;64917;-78
2021/03/15 09:54:46;;;;;;;13.00;2.95;;;;;;;5.27;80.33;100046.77;123370;1105;66162;-78
2021/03/15 09:57:13;;;;;;;25.90;6.80;;;;;;;5.14;81.76;100051.64;123445;1102;64879;-77
2021/03/15 09:59:40;;;;;;;14.20;6.07;;;;;;;5.08;82.14;100053.10;123573;1104;64859;-78
2021/03/15 10:02:07;;;;;;;12.63;4.97;;;;;;;5.05;82.84;100048.14;123442;1102;64937;-79
2021/03/15 10:04:36;;;;;;;18.40;5.40;;;;;;;5.05;83.47;100042.88;123407;1105;64963;-79
2021/03/15 10:07:07;;;;;;;13.15;4.65;;;;;;;5.05;84.60;100056.02;123574;1102;64902;-79
2021/03/15 10:09:40;;;;;;;29.47;5.20;;;;;;;5.08;84.64;100048.66;124084;1105;64928;-79
2021/03/15 10:12:18;;;;;;;22.90;5.83;;;;;;;5.14;84.83;100047.20;123722;1103;65220;-79
2021/03/15 10:14:44;;;;;;;14.03;6.03;;;;;;;5.16;83.02;100047.87;123715;1105;64949;-79
2021/03/15 10:17:21;;;;;;;9.60;2.95;;;;;;;5.16;83.97;100045.23;123716;1102;65716;-78
2021/03/15 10:19:48;;;;;;;13.90;4.87;;;;;;;5.15;84.47;100040.97;123467;1105;64889;-79
2021/03/15 10:22:17;;;;;;;12.20;4.03;;;;;;;5.14;86.29;100047.20;123476;1106;64911;-78
2021/03/15 10:24:45;;;;;;;10.27;4.93;;;;;;;5.17;85.07;100044.27;123421;1105;64828;-78
2021/03/15 10:27:23;;;;;;;13.93;4.40;;;;;;;5.23;85.34;100042.84;123601;1102;65226;-77
2021/03/15 10:30:04;;;;;;;15.67;5.70;;;;;;;5.26;84.79;100042.51;123437;1105;65333;-78
2021/03/15 10:32:31;;;;;;;13.20;3.95;;;;;;;5.34;84.79;100045.19;123367;1105;65390;-75
2021/03/15 10:35:00;;;;;;;13.80;4.93;;;;;;;5.49;84.13;100046.23;123572;1105;64892;-76
2021/03/15 10:37:31;;;;;;;7.03;2.67;;;;;;;5.64;84.17;100072.77;123474;1106;65324;-76
2021/03/15 10:39:59;;;;;;;12.60;4.27;;;;;;;5.78;83.65;100033.67;123384;1102;64838;-77
2021/03/15 10:42:28;;;;;;;13.33;4.43;;;;;;;5.96;83.24;100034.41;123443;1106;65456;-76
2021/03/15 10:44:54;;;;;;;7.23;3.37;;;;;;;5.93;81.54;100045.25;123540;1103;65027;-78
2021/03/15 10:47:29;;;;;;;10.63;3.87;;;;;;;5.89;82.32;100044.73;123330;1106;65313;-75
2021/03/15 10:49:58;;;;;;;9.13;2.63;;;;;;;5.86;82.87;100038.95;123413;1102;64901;-75
2021/03/15 10:52:33;;;;;;;5.07;2.70;;;;;;;5.87;82.47;100030.09;123559;1102;64927;-76
2021/03/15 10:55:18;;;;;;;11.57;3.23;;;;;;;5.96;81.74;100033.59;123571;1105;65269;-76
2021/03/15 10:58:00;;;;;;;9.18;3.05;;;;;;;6.18;80.30;100027.69;123458;1105;64920;-74
2021/03/15 11:00:32;;;;;;;7.13;3.07;;;;;;;6.38;79.59;100028.22;123417;1105;64866;-77
2021/03/15 11:02:59;;;;;;;4.00;2.07;;;;;;;6.56;78.51;100030.68;123455;1104;64892;-81
2021/03/15 11:05:26;;;;;;;2.73;1.70;;;;;;;6.69;78.38;100030.18;123620;1105;64969;-78
2021/03/15 11:07:54;;;;;;;7.80;2.67;;;;;;;6.89;78.49;100042.03;123532;1102;64873;-79
2021/03/15 11:10:23;;;;;;;10.10;3.63;;;;;;;6.92;78.33;100031.14;123523;1105;64895;-80
2021/03/15 11:12:56;;;;;;;8.00;2.80;;;;;;;6.85;77.25;100053.08;123545;1105;65684;-79
2021/03/15 11:15:32;;;;;;;6.70;2.57;;;;;;;6.76;77.27;100028.55;123562;1105;64908;-79
2021/03/15 11:18:12;;;;;;;9.07;3.43;;;;;;;6.84;76.74;100036.45;124275;1105;66145;-82
2021/03/15 11:20:51;;;;;;;4.77;1.77;;;;;;;7.05;76.31;100030.62;124732;1105;65019;-79
2021/03/15 11:23:28;;;;;;;7.80;2.53;;;;;;;7.15;74.91;100031.25;124008;1105;64911;-80
2021/03/15 11:26:04;;;;;;;11.93;2.30;;;;;;;7.36;74.00;100014.06;124140;1105;64844;-80
2021/03/15 11:28:55;;;;;;;3.63;2.20;;;;;;;7.53;73.16;100038.56;123568;1102;64963;-77
2021/03/15 11:31:23;;;;;;;4.65;1.60;;;;;;;7.65;72.49;100034.56;123340;1106;65261;-76
2021/03/15 11:33:55;;;;;;;6.97;1.80;;;;;;;7.58;72.45;100022.21;123412;1104;65017;-78